TAF and METAR

METAR for El Alto International Airport

SLLP 170300Z VRB02KT 4000E VCFG FEW003 SCT013 BKN200 02/01 Q1039
Report created 17. jul 05:00
wind 2 knots from various directions visibility E 4000 meters fog in the vicinity some clouds (~25% cover) at 300 feet scattered clouds (~50% cover) at 1300 feet broken clouds (~75% cover) at 20000 feet Temperature 2° with dewpoint at 1° (Humidity 93.08%) Pressure 1039 hPa

TAF for El Alto International Airport

TAF SLLP 162200Z 1700/1724 05003KT 9999 FEW015 FEW020CB SCT070 TX13/ 1720Z TNM03/1710Z BECMG 1704/1708 2000E VCFG FEW002 BECMG 1712/1714 9999 NSW TEMPO 1718/1721 7000 TSRA FEW020CB BKN070
Report created 17. jul 00:00

between 17. jul 02:00 - 17. jul 02:00

wind 3 knots from NE (050°) visibility > 10km some clouds (~25% cover) at 1500 feet some clouds (~25% cover) at 2000 feet of type cumulonimbus scattered clouds (~50% cover) at 7000 feet Max temperature 13° expected today at around 22 o'clock Min temperature -03° expected today at around 12 o'clock

becoming between 17. jul 06:00 - 17. jul 10:00

visibility E 2000 meters fog in the vicinity some clouds (~25% cover) at 200 feet

becoming between 17. jul 14:00 - 17. jul 16:00

visibility > 10km

temporarily between 17. jul 20:00 - 17. jul 23:00

visibility 7000 meters thunderstorm and rain some clouds (~25% cover) at 2000 feet of type cumulonimbus broken clouds (~75% cover) at 7000 feet